Flight Track Log - Related Links

Times and Time Zones

All times are in EDT time to prevent confusion due to time zone crossing. See the JZA8522 flight status page for this flight to view local times or setup timezone preferences in your user account.

Time Position Orientation Groundspeed Altitude Reporting Facility
EDT Latitude Longitude Course Direction KTS MPH feet Rate Location/Type
Wed 09:26:26 PM 49.8833 -97.2333 93° East 10 12 700  Level Winnipeg Center
Wed 09:27:26 PM 49.9000 -97.2333 360° North 160 184 1,000 1,250 Climbing Winnipeg Center
Wed 09:28:26 PM 49.9500 -97.2333 360° North 210 242 3,200 2,650 Climbing Winnipeg Center
Wed 09:29:26 PM 50.0000 -97.1667 41° Northeast 220 253 6,300 2,600 Climbing Winnipeg Center
Wed 09:30:26 PM 50.0000 -97.0667 90° East 270 311 8,400 2,300 Climbing Winnipeg Center
Wed 09:31:00 PM 49.9334 -96.4210 90° East  Level FlightAware Approximate
Wed 09:31:26 PM 50.0000 -96.9333 90° East 290 334 10,900  Level Winnipeg Center
Wed 09:32:00 PM 49.9321 -96.2168 93° East  Level FlightAware Approximate
Wed 09:32:26 PM 49.9833 -96.7833 100° East 370 426 11,900  Level Winnipeg Center
Wed 09:33:00 PM 49.9240 -96.0129 93° East  Level FlightAware Approximate
Wed 09:33:26 PM 49.9833 -96.6000 90° East 390 449 14,200  Level Winnipeg Center
Wed 09:34:26 PM 49.9833 -96.4500 90° East 410 472 16,100 1,800 Climbing Winnipeg Center
Wed 09:35:26 PM 49.9667 -96.2333 97° East 420 483 17,800 1,700 Climbing Winnipeg Center
Wed 09:36:26 PM 49.9667 -96.0500 90° East 440 506 19,500 1,650 Climbing Winnipeg Center
Wed 09:37:26 PM 49.9333 -95.8667 106° East 450 518 21,100 1,600 Climbing Winnipeg Center
Wed 09:38:26 PM 49.9333 -95.6667 90° East 460 529 22,700 1,500 Climbing Winnipeg Center
Wed 09:39:26 PM 49.9333 -95.4500 90° East 470 541 24,100 1,200 Climbing Winnipeg Center
Wed 09:40:26 PM 49.9167 -95.2500 97° East 480 552 25,100 1,150 Climbing Winnipeg Center
Wed 09:41:26 PM 49.9167 -95.0167 90° East 500 575 26,400 1,350 Climbing Winnipeg Center
Wed 09:42:26 PM 49.9000 -94.8167 97° East 500 575 27,800 1,400 Climbing Winnipeg Center
Wed 09:43:26 PM 49.8833 -94.6000 97° East 500 575 29,200 1,450 Climbing Winnipeg Center
Wed 09:44:26 PM 49.8833 -94.4000 90° East 500 575 30,700 1,450 Climbing Winnipeg Center
Wed 09:45:26 PM 49.8833 -94.1833 90° East 500 575 32,100 1,400 Climbing Winnipeg Center
Wed 09:46:26 PM 49.8667 -93.9500 96° East 490 564 33,500 950 Climbing Winnipeg Center
Wed 09:47:26 PM 49.8667 -93.7500 90° East 500 575 34,000 700 Climbing Winnipeg Center
Wed 09:48:26 PM 49.8833 -93.5333 83° East 510 587 34,900 500 Climbing Winnipeg Center
Wed 09:49:26 PM 49.8667 -93.3000 96° East 520 598 35,000 50 Climbing Winnipeg Center
Wed 09:50:26 PM 49.8667 -93.0667 90° East 530 610 35,000  Level Winnipeg Center
Wed 09:51:26 PM 49.8333 -92.8667 104° East 520 598 35,000  Level Winnipeg Center
Wed 09:52:26 PM 49.8167 -92.6333 96° East 500 575 35,000  Level Winnipeg Center
Wed 09:53:26 PM 49.7667 -92.4333 111° Southeast 490 564 35,000  Level Winnipeg Center
Wed 09:54:26 PM 49.7333 -92.2333 104° East 480 552 35,000  Level Winnipeg Center
Wed 09:55:26 PM 49.6833 -92.0333 111° Southeast 480 552 35,000  Level Winnipeg Center
Wed 09:56:26 PM 49.6500 -91.8167 103° East 490 564 35,000  Level Winnipeg Center
Wed 09:57:26 PM 49.6000 -91.6167 111° Southeast 500 575 35,000  Level Winnipeg Center
Wed 09:58:26 PM 49.5500 -91.4167 111° Southeast 510 587 35,000  Level Winnipeg Center
Wed 09:59:26 PM 49.5167 -91.1833 102° East 520 598 35,000  Level Winnipeg Center
Wed 10:00:26 PM 49.4667 -90.9833 111° Southeast 520 598 35,000  Level Winnipeg Center
Wed 10:01:26 PM 49.4167 -90.7833 111° Southeast 520 598 35,000  Level Winnipeg Center
Wed 10:02:26 PM 49.3833 -90.5667 103° East 520 598 35,000  Level Winnipeg Center
Wed 10:03:26 PM 49.3333 -90.3667 111° Southeast 520 598 35,000  Level Winnipeg Center
Wed 10:04:26 PM 49.2833 -90.1333 108° East 520 598 35,000  Level Winnipeg Center
Wed 10:05:26 PM 49.2333 -89.9333 111° Southeast 520 598 35,000  Level Winnipeg Center
Wed 10:06:26 PM 49.2000 -89.7167 103° East 520 598 35,000  Level Winnipeg Center
Wed 10:07:26 PM 49.1500 -89.5167 111° Southeast 520 598 35,000  Level Winnipeg Center
Wed 10:08:26 PM 49.1000 -89.3167 111° Southeast 530 610 35,000  Level Winnipeg Center
Wed 10:09:26 PM 49.0500 -89.1000 109° East 530 610 35,000  Level Winnipeg Center
Wed 10:10:26 PM 49.0000 -88.8833 109° East 530 610 35,000  Level Winnipeg Center
Wed 10:11:26 PM 48.9500 -88.6833 111° Southeast 530 610 35,000  Level Winnipeg Center
Wed 10:12:26 PM 48.9000 -88.4500 108° East 530 610 35,000  Level Winnipeg Center
Wed 10:13:26 PM 48.8333 -88.2667 119° Southeast 540 621 35,000  Level Winnipeg Center
Wed 10:14:26 PM 48.7833 -88.0167 107° East 540 621 35,000  Level Winnipeg Center
Wed 10:15:26 PM 48.7333 -87.8333 112° Southeast 540 621 35,000  Level Winnipeg Center
Wed 10:16:26 PM 48.6833 -87.6333 111° Southeast 540 621 35,000  Level Winnipeg Center
Wed 10:17:26 PM 48.6333 -87.4167 109° East 540 621 35,000  Level Winnipeg Center
Wed 10:18:26 PM 48.5833 -87.2000 109° East 540 621 35,000  Level Winnipeg Center
Wed 10:19:26 PM 48.5333 -86.9833 109° East 540 621 35,000  Level Winnipeg Center
Wed 10:20:26 PM 48.4667 -86.7667 115° Southeast 540 621 35,000  Level Winnipeg Center
Wed 10:21:26 PM 48.4167 -86.5667 111° Southeast 540 621 35,000  Level Winnipeg Center
Wed 10:22:26 PM 48.3500 -86.3500 115° Southeast 540 621 35,000  Level Winnipeg Center
Wed 10:23:26 PM 48.3167 -86.1333 103° East 540 621 35,000  Level Winnipeg Center
Wed 10:24:26 PM 48.2667 -85.9167 109° East 540 621 35,000  Level Winnipeg Center
Wed 10:25:26 PM 48.2333 -85.7000 103° East 540 621 35,000  Level Winnipeg Center
Wed 10:26:26 PM 48.2167 -85.4667 96° East 550 633 35,000  Level Winnipeg Center
Wed 10:27:26 PM 48.1667 -85.2500 109° East 540 621 35,000  Level Winnipeg Center
Wed 10:28:26 PM 48.1333 -85.0333 103° East 540 621 35,000  Level Winnipeg Center
Wed 10:29:26 PM 48.0833 -84.8167 109° East 540 621 35,000  Level Winnipeg Center
Wed 10:30:26 PM 48.0667 -84.6000 96° East 530 610 35,000  Level Winnipeg Center
Wed 10:31:26 PM 48.0167 -84.3833 109° East 530 610 35,000  Level Winnipeg Center
Wed 10:32:26 PM 47.9833 -84.1667 103° East 530 610 35,000  Level Winnipeg Center
Wed 10:33:26 PM 47.9667 -83.9667 97° East 530 610 35,000  Level Winnipeg Center
Wed 10:34:26 PM 47.9167 -83.7500 109° East 530 610 35,000  Level Winnipeg Center
Wed 10:35:26 PM 47.8667 -83.5500 110° East 530 610 35,000  Level Winnipeg Center
Wed 10:36:26 PM 47.8500 -83.3167 96° East 530 610 35,000  Level Winnipeg Center
Wed 10:37:43 PM 47.8167 -83.1500 107° East 520 598 35,000  Level Montreal Center
Wed 10:38:43 PM 47.7667 -82.9500 110° East 520 598 35,000  Level Montreal Center
Wed 10:39:43 PM 47.7333 -82.7333 103° East 520 598 35,000  Level Montreal Center
Wed 10:40:43 PM 47.7000 -82.5167 103° East 520 598 35,000  Level Montreal Center
Wed 10:41:43 PM 47.6667 -82.3000 103° East 520 598 35,000  Level Montreal Center
Wed 10:42:43 PM 47.6000 -82.1000 116° Southeast 520 598 35,000  Level Montreal Center
Wed 10:43:43 PM 47.5667 -81.9000 104° East 520 598 35,000  Level Montreal Center
Wed 10:44:43 PM 47.5333 -81.6833 103° East 520 598 35,000  Level Montreal Center
Wed 10:45:43 PM 47.4833 -81.4667 109° East 530 610 35,000  Level Montreal Center
Wed 10:46:43 PM 47.4500 -81.2500 103° East 530 610 35,000  Level Montreal Center
Wed 10:47:43 PM 47.4000 -81.0500 110° East 530 610 35,000  Level Montreal Center
Wed 10:48:43 PM 47.3667 -80.8500 104° East 530 610 35,000  Level Montreal Center
Wed 10:49:43 PM 47.3167 -80.6167 107° East 530 610 35,000  Level Montreal Center
Wed 10:50:43 PM 47.2833 -80.4167 104° East 530 610 35,000  Level Montreal Center
Wed 10:51:43 PM 47.2333 -80.2167 110° East 530 610 35,000  Level Montreal Center
Wed 10:52:43 PM 47.2000 -80.0000 103° East 530 610 35,000  Level Montreal Center
Wed 10:53:43 PM 47.1500 -79.8000 110° East 530 610 35,000  Level Montreal Center
Wed 10:54:43 PM 47.1000 -79.6000 110° East 530 610 35,000  Level Montreal Center
Wed 10:55:43 PM 47.0500 -79.3833 109° East 520 598 35,000  Level Montreal Center
Wed 10:56:43 PM 47.0000 -79.1833 110° East 520 598 35,000  Level Montreal Center
Wed 10:57:43 PM 46.9667 -79.0000 105° East 520 598 35,000  Level Montreal Center
Wed 10:58:43 PM 46.9167 -78.8000 110° East 520 598 35,000  Level Montreal Center
Wed 10:59:43 PM 46.8667 -78.5667 107° East 520 598 35,000  Level Montreal Center
Wed 11:00:43 PM 46.8167 -78.3667 110° East 520 598 35,000  Level Montreal Center
Wed 11:01:43 PM 46.7833 -78.1667 104° East 520 598 35,000  Level Montreal Center
Wed 11:02:43 PM 46.7333 -77.9667 110° East 520 598 35,000  Level Montreal Center
Wed 11:03:43 PM 46.6833 -77.7833 112° Southeast 520 598 35,000  Level Montreal Center
Wed 11:04:43 PM 46.6333 -77.5833 110° East 520 598 35,000  Level Montreal Center
Wed 11:05:43 PM 46.5833 -77.3833 110° East 520 598 35,000  Level Montreal Center
Wed 11:06:43 PM 46.5500 -77.1667 103° East 520 598 35,000  Level Montreal Center
Wed 11:07:43 PM 46.5000 -76.9833 112° Southeast 520 598 35,000  Level Montreal Center
Wed 11:08:43 PM 46.4500 -76.8000 112° Southeast 520 598 35,000  Level Montreal Center
Wed 11:09:43 PM 46.4000 -76.5833 108° East 520 598 35,000  Level Montreal Center
Wed 11:10:43 PM 46.3500 -76.4000 112° Southeast 520 598 35,000  Level Montreal Center
Wed 11:11:43 PM 46.3000 -76.1833 108° East 520 598 35,000  Level Montreal Center
Wed 11:12:43 PM 46.2500 -76.0000 111° Southeast 520 598 35,000  Level Montreal Center
Wed 11:13:43 PM 46.2000 -75.8000 110° East 520 598 35,000 -750 Level Montreal Center
Wed 11:14:43 PM 46.1500 -75.6000 110° East 520 598 33,500 -2,300 Descending Montreal Center
Wed 11:15:43 PM 46.1333 -75.3833 96° East 520 598 30,400 -3,200 Descending Montreal Center
Wed 11:16:43 PM 46.1167 -75.1667 96° East 510 587 27,100 -3,150 Descending Montreal Center
Wed 11:17:43 PM 46.0833 -74.9833 105° East 500 575 24,100 -3,200 Descending Montreal Center
Wed 11:18:43 PM 46.0667 -74.7833 97° East 470 541 20,700 -3,150 Descending Montreal Center
Wed 11:19:43 PM 46.0500 -74.6167 98° East 440 506 17,800 -2,700 Descending Montreal Center
Wed 11:20:43 PM 46.0167 -74.4667 108° East 410 472 15,300 -2,550 Descending Montreal Center
Wed 11:21:43 PM 45.9333 -74.3833 145° Southeast 370 426 12,700 -2,150 Descending Montreal Center
Wed 11:22:43 PM 45.8667 -74.2667 129° Southeast 370 426 11,000 -1,500 Descending Montreal Center
Wed 11:23:43 PM 45.8333 -74.1167 108° East 350 403 9,700 -1,450 Descending Montreal Center
Wed 11:24:43 PM 45.8000 -74.0000 112° Southeast 310 357 8,100 -1,500 Descending Montreal Center
Wed 11:25:43 PM 45.7500 -73.9000 126° Southeast 300 345 6,700 -1,300 Descending Montreal Center
Wed 11:26:43 PM 45.7167 -73.8000 115° Southeast 280 322 5,500 -1,250 Descending Montreal Center
Wed 11:27:43 PM 45.6833 -73.6833 112° Southeast 280 322 4,200 -1,190 Descending Montreal Center
Wed 11:28:44 PM 45.6333 -73.6167 137° Southeast 260 299 3,100 -595 Descending Montreal Center
Wed 11:29:44 PM 45.5833 -73.6000 167° South 210 242 3,000 -400 Descending Montreal Center
Wed 11:30:44 PM 45.5500 -73.6167 199° South 160 184 2,300 -800 Descending Montreal Center
Wed 11:31:44 PM 45.5167 -73.6667 226° Southwest 140 161 1,400 -750 Descending Montreal Center
Wed 11:32:44 PM 45.5000 -73.7000 235° Southwest 110 127 800 -650 Descending Montreal Center
Wed 11:33:44 PM 45.4667 -73.7167 199° South 120 138 100 -350 Descending Montreal Center
Wed 11:34:44 PM 45.4667 -73.7500 270° West 10 12 100  Level Montreal Center

Login

Don't have an account? Register now (free) for customized features, flight alerts, and more!